Time;durP1;ratioP1;P1;durP2;ratioP2;P2;SDS_P1;SDS_P2;PMS_P1;PMS_P2;Temp;Humidity;BMP_temperature;BMP_pressure;BME280_temperature;BME280_humidity;BME280_pressure;Samples;Min_cycle;Max_cycle;Signal;HPM_P1;HPM_P2
2023/03/03 00:00:25;;;;;;;31.17;18.17;;;-0.10;75.00;;;;;;6257151;28;20247;-82
2023/03/03 00:03:29;;;;;;;24.30;17.43;;;0.00;74.80;;;;;;6227563;28;20330;-81
2023/03/03 00:06:33;;;;;;;27.23;18.43;;;0.00;74.20;;;;;;6207227;28;20244;-82
2023/03/03 00:09:36;;;;;;;28.90;18.40;;;0.00;74.30;;;;;;6226310;28;20246;-82
2023/03/03 00:12:47;;;;;;;26.57;18.13;;;0.00;74.40;;;;;;6213211;28;20250;-83
2023/03/03 00:15:52;;;;;;;24.53;18.07;;;0.00;74.30;;;;;;6213428;28;20242;-83
2023/03/03 00:18:58;;;;;;;24.87;17.40;;;0.00;74.30;;;;;;6224564;28;20627;-83
2023/03/03 00:22:02;;;;;;;24.90;17.53;;;0.00;74.20;;;;;;6249135;28;20917;-82
2023/03/03 00:25:27;;;;;;;23.47;16.50;;;0.00;74.20;;;;;;6247192;28;20741;-81
2023/03/03 00:28:32;;;;;;;22.87;16.77;;;-0.10;74.30;;;;;;6229623;28;20250;-82
2023/03/03 00:31:36;;;;;;;23.60;15.87;;;-0.10;74.30;;;;;;6250249;28;20265;-82
2023/03/03 00:34:43;;;;;;;21.17;16.37;;;-0.10;74.10;;;;;;6244701;28;20235;-83
2023/03/03 00:37:47;;;;;;;22.93;16.07;;;-0.10;74.30;;;;;;6240493;28;20230;-82
2023/03/03 00:40:50;;;;;;;24.87;16.47;;;-0.10;74.20;;;;;;6251121;28;20883;-84
2023/03/03 00:43:54;;;;;;;22.03;16.27;;;-0.10;74.30;;;;;;6212149;28;20246;-82
2023/03/03 00:47:02;;;;;;;24.20;16.27;;;-0.10;74.30;;;;;;6207251;28;20231;-83
2023/03/03 00:50:34;;;;;;;24.90;16.87;;;-0.10;74.40;;;;;;6255042;28;20250;-81
2023/03/03 00:53:38;;;;;;;25.17;17.20;;;-0.10;74.50;;;;;;6255834;28;20248;-82
2023/03/03 00:56:41;;;;;;;24.23;16.60;;;-0.10;74.60;;;;;;6258117;28;20231;-83
2023/03/03 00:59:44;;;;;;;21.30;15.37;;;-0.10;74.70;;;;;;6256301;28;20242;-82
2023/03/03 01:02:47;;;;;;;22.67;16.80;;;-0.10;74.70;;;;;;6233967;28;20241;-83
2023/03/03 01:05:52;;;;;;;22.50;17.37;;;-0.10;74.70;;;;;;6255615;28;20413;-79
2023/03/03 01:08:56;;;;;;;22.33;14.53;;;0.00;74.70;;;;;;6261613;28;22002;-80
2023/03/03 01:12:00;;;;;;;23.70;16.17;;;0.00;74.60;;;;;;6279982;28;20237;-81
2023/03/03 01:15:04;;;;;;;25.17;17.63;;;-0.10;74.20;;;;;;6276194;28;20755;-82
2023/03/03 01:18:07;;;;;;;22.60;16.53;;;-0.10;74.30;;;;;;6254534;28;20347;-83
2023/03/03 01:21:12;;;;;;;24.53;16.73;;;-0.20;74.70;;;;;;6240891;28;20242;-82
2023/03/03 01:24:16;;;;;;;27.17;17.37;;;-0.10;74.80;;;;;;6243762;28;20252;-84
2023/03/03 01:27:19;;;;;;;24.97;17.20;;;-0.10;74.70;;;;;;6251490;28;20226;-82
2023/03/03 01:30:22;;;;;;;22.80;16.80;;;0.00;74.60;;;;;;6254901;28;20612;-83
2023/03/03 01:33:25;;;;;;;27.57;19.17;;;0.00;74.60;;;;;;6240041;28;20231;-82
2023/03/03 01:36:30;;;;;;;25.20;18.00;;;0.00;74.50;;;;;;6245555;28;20238;-83
2023/03/03 01:39:33;;;;;;;26.63;18.63;;;0.00;74.60;;;;;;6247550;28;20241;-83
2023/03/03 01:42:39;;;;;;;24.40;17.53;;;0.00;74.50;;;;;;6235401;28;20234;-82
2023/03/03 01:46:00;;;;;;;24.10;18.07;;;0.00;74.60;;;;;;6229808;28;20246;-82
2023/03/03 01:49:08;;;;;;;30.27;18.73;;;0.00;74.30;;;;;;6232201;28;20710;-82
2023/03/03 01:52:18;;;;;;;27.20;17.83;;;0.00;74.40;;;;;;6249695;28;20233;-82
2023/03/03 01:55:25;;;;;;;23.80;16.87;;;-0.10;74.70;;;;;;6234490;28;20233;-83
2023/03/03 01:58:31;;;;;;;24.60;17.73;;;-0.10;74.90;;;;;;6248285;28;20234;-82
2023/03/03 02:01:34;;;;;;;25.93;18.43;;;0.00;74.60;;;;;;6246840;28;20245;-83
2023/03/03 02:04:41;;;;;;;29.07;18.27;;;0.00;74.80;;;;;;6253392;28;20323;-82
2023/03/03 02:07:46;;;;;;;28.50;18.73;;;0.00;74.70;;;;;;6235772;28;20246;-83
2023/03/03 02:10:51;;;;;;;24.63;18.00;;;0.00;74.70;;;;;;6222165;28;20325;-82
2023/03/03 02:13:54;;;;;;;29.63;19.83;;;0.00;74.70;;;;;;6223233;28;20230;-82
2023/03/03 02:16:57;;;;;;;27.87;19.87;;;0.00;74.70;;;;;;6221140;28;20239;-83
2023/03/03 02:20:06;;;;;;;27.17;19.10;;;0.00;74.70;;;;;;6232490;28;20243;-79
2023/03/03 02:23:21;;;;;;;27.63;19.50;;;0.00;74.60;;;;;;6238292;28;20364;-83
2023/03/03 02:26:30;;;;;;;26.63;18.87;;;0.00;74.80;;;;;;6223758;28;20243;-84
2023/03/03 02:29:33;;;;;;;30.30;20.67;;;0.00;74.70;;;;;;6251336;28;20245;-82
2023/03/03 02:32:36;;;;;;;33.10;20.57;;;0.00;74.40;;;;;;6245162;28;20245;-82
2023/03/03 02:35:43;;;;;;;32.67;21.93;;;0.00;74.80;;;;;;6234814;28;20273;-83
2023/03/03 02:38:53;;;;;;;30.13;21.53;;;0.00;74.90;;;;;;6229553;28;20235;-83
2023/03/03 02:42:03;;;;;;;34.17;21.60;;;0.00;74.70;;;;;;6217311;28;20243;-82
2023/03/03 02:45:08;;;;;;;29.40;19.90;;;0.00;74.80;;;;;;6224072;28;20242;-82
2023/03/03 02:48:11;;;;;;;28.20;20.60;;;0.00;74.70;;;;;;6242316;28;21479;-82
2023/03/03 02:51:15;;;;;;;28.60;19.93;;;0.00;74.90;;;;;;6254579;28;20705;-81
2023/03/03 02:54:21;;;;;;;30.03;20.13;;;0.00;75.00;;;;;;6247009;28;20245;-83
2023/03/03 02:57:26;;;;;;;29.73;21.07;;;-0.10;75.10;;;;;;6246099;28;20596;-80
2023/03/03 03:00:29;;;;;;;30.80;21.37;;;-0.10;75.30;;;;;;6250704;28;20317;-80
2023/03/03 03:03:32;;;;;;;30.53;20.87;;;-0.10;75.30;;;;;;6254640;28;20240;-83
2023/03/03 03:06:37;;;;;;;31.63;21.27;;;-0.10;75.50;;;;;;6226560;28;20244;-80
2023/03/03 03:09:40;;;;;;;28.97;20.70;;;-0.10;75.50;;;;;;6230076;28;20230;-81
2023/03/03 03:12:45;;;;;;;27.37;20.40;;;-0.10;75.50;;;;;;6254101;28;20331;-83
2023/03/03 03:15:48;;;;;;;27.37;20.03;;;-0.10;75.50;;;;;;6242488;28;20231;-81
2023/03/03 03:18:51;;;;;;;29.80;20.33;;;-0.10;75.40;;;;;;6234568;28;20253;-80
2023/03/03 03:21:55;;;;;;;34.20;22.43;;;-0.20;75.50;;;;;;6244906;28;20239;-81
2023/03/03 03:24:58;;;;;;;27.80;18.83;;;-0.10;75.50;;;;;;6263403;28;20248;-80
2023/03/03 03:28:02;;;;;;;27.97;20.27;;;-0.10;75.60;;;;;;6286671;28;20232;-81
2023/03/03 03:31:06;;;;;;;30.87;19.37;;;-0.10;75.50;;;;;;6264246;28;20230;-82
2023/03/03 03:34:11;;;;;;;27.23;19.37;;;-0.10;75.50;;;;;;6272742;28;20225;-82
2023/03/03 03:37:14;;;;;;;25.13;17.77;;;-0.10;75.50;;;;;;6272272;28;20246;-83
2023/03/03 03:40:18;;;;;;;29.07;19.47;;;-0.10;75.50;;;;;;6270548;28;20221;-80
2023/03/03 03:43:23;;;;;;;28.73;19.23;;;-0.10;75.30;;;;;;6254474;28;20743;-82
2023/03/03 03:46:26;;;;;;;28.10;18.77;;;-0.10;75.60;;;;;;6246124;28;20249;-81
2023/03/03 03:49:29;;;;;;;29.83;20.53;;;-0.10;75.50;;;;;;6247464;28;20235;-83
2023/03/03 03:52:32;;;;;;;31.73;20.80;;;-0.20;75.80;;;;;;6218495;28;20686;-82
2023/03/03 03:55:36;;;;;;;34.47;20.43;;;-0.20;75.90;;;;;;6239329;28;20235;-83
2023/03/03 03:58:41;;;;;;;33.57;19.23;;;-0.30;76.10;;;;;;6246859;28;20235;-82
2023/03/03 04:01:44;;;;;;;33.50;20.17;;;-0.40;76.60;;;;;;6257365;28;20330;-82
2023/03/03 04:04:48;;;;;;;28.97;19.13;;;-0.40;76.60;;;;;;6243143;28;20240;-82
2023/03/03 04:07:51;;;;;;;29.73;18.47;;;-0.40;76.60;;;;;;6247789;28;20733;-82
2023/03/03 04:10:54;;;;;;;33.23;20.97;;;-0.50;76.70;;;;;;6243904;28;20239;-82
2023/03/03 04:13:58;;;;;;;33.50;22.13;;;-0.60;76.90;;;;;;6237880;28;20245;-82
2023/03/03 04:17:02;;;;;;;38.53;23.67;;;-0.60;77.10;;;;;;6258507;28;20730;-83
2023/03/03 04:20:06;;;;;;;38.83;23.37;;;-0.70;77.20;;;;;;6227286;28;20235;-81
2023/03/03 04:23:09;;;;;;;38.37;23.93;;;-0.70;77.40;;;;;;6243596;28;20223;-81
2023/03/03 04:26:12;;;;;;;37.17;21.90;;;-0.70;77.50;;;;;;6247194;28;20241;-82
2023/03/03 04:29:18;;;;;;;37.40;21.97;;;-0.70;77.50;;;;;;6246248;28;20234;-81
2023/03/03 04:32:21;;;;;;;37.10;22.53;;;-0.70;77.50;;;;;;6243913;28;20242;-82
2023/03/03 04:35:24;;;;;;;44.00;22.73;;;-0.70;77.30;;;;;;6259562;28;20234;-81
2023/03/03 04:38:29;;;;;;;37.67;21.77;;;-0.80;77.50;;;;;;6239511;28;20350;-82
2023/03/03 04:41:32;;;;;;;34.37;20.43;;;-0.90;77.80;;;;;;6240990;28;20266;-80
2023/03/03 04:44:37;;;;;;;31.17;20.73;;;-1.00;78.20;;;;;;6243262;28;20242;-81
2023/03/03 04:47:40;;;;;;;32.27;20.57;;;-0.90;78.30;;;;;;6256146;28;20234;-81
2023/03/03 04:50:45;;;;;;;36.13;21.00;;;-0.90;78.20;;;;;;6255592;28;20379;-83
2023/03/03 04:53:49;;;;;;;30.07;18.60;;;-0.90;78.40;;;;;;6285092;28;20273;-80
2023/03/03 04:56:52;;;;;;;29.77;19.40;;;-0.90;78.30;;;;;;6274112;28;20219;-81
2023/03/03 04:59:57;;;;;;;31.87;19.60;;;-0.90;78.40;;;;;;6270627;28;20283;-83
2023/03/03 05:03:00;;;;;;;36.27;21.07;;;-0.80;78.30;;;;;;6262288;28;20239;-77
2023/03/03 05:06:07;;;;;;;39.57;21.23;;;-1.00;77.90;;;;;;6254580;28;20269;-78
2023/03/03 05:09:10;;;;;;;37.37;22.20;;;-0.90;77.70;;;;;;6258547;28;20239;-79
2023/03/03 05:12:13;;;;;;;39.87;22.40;;;-0.90;77.70;;;;;;6231321;28;20235;-81
2023/03/03 05:15:18;;;;;;;36.60;20.97;;;-1.00;77.60;;;;;;6239331;28;20254;-81
2023/03/03 05:18:21;;;;;;;42.13;21.93;;;-1.00;78.00;;;;;;6254833;28;20242;-83
2023/03/03 05:21:24;;;;;;;45.73;23.57;;;-1.00;78.00;;;;;;6251278;28;20234;-78
2023/03/03 05:24:28;;;;;;;38.30;21.97;;;-1.10;78.50;;;;;;6248502;28;20246;-78
2023/03/03 05:27:31;;;;;;;45.27;23.43;;;-1.10;78.60;;;;;;6229658;28;20249;-79
2023/03/03 05:30:37;;;;;;;42.37;22.73;;;-1.00;78.40;;;;;;6243728;28;20281;-77
2023/03/03 05:33:40;;;;;;;47.93;24.60;;;-1.00;78.20;;;;;;6278989;28;20237;-79
2023/03/03 05:36:43;;;;;;;40.43;22.97;;;-1.00;78.30;;;;;;6259232;28;20281;-77
2023/03/03 05:39:46;;;;;;;50.37;25.47;;;-1.00;78.50;;;;;;6279235;28;20286;-78
2023/03/03 05:42:51;;;;;;;47.87;25.70;;;-1.00;78.60;;;;;;6270371;28;20254;-79
2023/03/03 05:45:58;;;;;;;49.83;25.37;;;-1.00;78.50;;;;;;6250263;28;20241;-80
2023/03/03 05:49:02;;;;;;;48.67;25.90;;;-1.00;78.40;;;;;;6235541;28;20241;-78
2023/03/03 05:52:05;;;;;;;49.83;25.87;;;-1.00;78.40;;;;;;6226569;28;20246;-80
2023/03/03 05:55:09;;;;;;;52.97;27.23;;;-1.10;78.60;;;;;;6239342;28;20242;-78
2023/03/03 05:58:12;;;;;;;48.63;24.63;;;-1.00;78.90;;;;;;6225774;28;20247;-79
2023/03/03 06:01:17;;;;;;;49.03;26.13;;;-1.00;78.70;;;;;;6242266;28;20234;-79
2023/03/03 06:04:20;;;;;;;59.07;27.17;;;-1.00;78.80;;;;;;6246377;28;20295;-79
2023/03/03 06:07:23;;;;;;;49.57;26.13;;;-1.10;78.40;;;;;;6230816;28;20240;-80
2023/03/03 06:10:27;;;;;;;48.57;25.57;;;-1.10;78.70;;;;;;6217647;28;20257;-81
2023/03/03 06:13:30;;;;;;;44.20;24.17;;;-1.20;79.10;;;;;;6226035;28;20227;-82
2023/03/03 06:16:34;;;;;;;50.63;25.97;;;-1.30;79.10;;;;;;6232833;28;20246;-81
2023/03/03 06:19:37;;;;;;;47.43;24.53;;;-1.20;79.30;;;;;;6218790;28;20242;-81
2023/03/03 06:22:40;;;;;;;46.07;24.67;;;-1.10;79.20;;;;;;6229319;28;20231;-80
2023/03/03 06:25:43;;;;;;;42.97;24.20;;;-1.10;79.00;;;;;;6220220;28;20746;-81
2023/03/03 06:28:46;;;;;;;42.67;23.63;;;-1.00;78.90;;;;;;6201578;28;20846;-81
2023/03/03 06:31:51;;;;;;;42.87;23.87;;;-1.00;78.40;;;;;;6200413;28;20247;-81
2023/03/03 06:34:54;;;;;;;53.57;23.23;;;-1.10;78.30;;;;;;6233035;28;20234;-80
2023/03/03 06:37:58;;;;;;;44.90;22.73;;;-1.10;78.40;;;;;;6250113;28;20721;-82
2023/03/03 06:41:06;;;;;;;42.03;23.83;;;-1.30;78.60;;;;;;6236926;28;20250;-81
2023/03/03 06:44:10;;;;;;;46.60;23.43;;;-1.30;78.90;;;;;;6220748;28;20235;-81
2023/03/03 06:47:17;;;;;;;47.33;22.83;;;-1.30;79.00;;;;;;6215911;28;20293;-82
2023/03/03 06:50:21;;;;;;;42.97;23.27;;;-1.10;79.10;;;;;;6224723;28;20243;-80
2023/03/03 06:53:26;;;;;;;37.07;22.60;;;-1.20;79.00;;;;;;6210234;28;20335;-80
2023/03/03 06:56:33;;;;;;;47.97;25.07;;;-1.10;79.10;;;;;;6223923;28;20718;-81
2023/03/03 06:59:36;;;;;;;43.17;22.77;;;-1.10;79.00;;;;;;6221239;28;20381;-79
2023/03/03 07:02:41;;;;;;;48.73;23.23;;;-1.10;78.80;;;;;;6207751;28;20273;-81
2023/03/03 07:05:44;;;;;;;39.73;21.73;;;-1.00;78.90;;;;;;6248504;28;20226;-80
2023/03/03 07:08:48;;;;;;;48.23;23.47;;;-0.90;79.00;;;;;;6241187;28;20247;-82
2023/03/03 07:11:51;;;;;;;41.13;22.37;;;-0.90;78.60;;;;;;6206249;28;20248;-81
2023/03/03 07:14:59;;;;;;;44.13;21.80;;;-0.70;78.60;;;;;;6238613;28;20238;-78
2023/03/03 07:18:20;;;;;;;40.00;23.17;;;-0.70;78.00;;;;;;6241760;28;20319;-82
2023/03/03 07:21:30;;;;;;;37.93;21.47;;;-0.70;77.80;;;;;;6243312;28;20238;-81
2023/03/03 07:24:33;;;;;;;45.57;24.33;;;-0.70;77.80;;;;;;6229867;28;20233;-78
2023/03/03 07:27:37;;;;;;;44.77;24.17;;;-0.80;77.70;;;;;;6231672;28;20748;-79
2023/03/03 07:30:42;;;;;;;50.70;23.90;;;-1.00;78.20;;;;;;6252931;28;20242;-79
2023/03/03 07:33:46;;;;;;;54.77;25.53;;;-0.90;78.30;;;;;;6235031;28;20235;-77
2023/03/03 07:36:53;;;;;;;52.70;26.20;;;-0.90;78.40;;;;;;6208343;28;20354;-81
2023/03/03 07:39:56;;;;;;;53.83;25.53;;;-1.00;78.50;;;;;;6206917;28;20240;-81
2023/03/03 07:43:00;;;;;;;47.83;24.23;;;-0.90;78.70;;;;;;6232023;28;20305;-78
2023/03/03 07:46:26;;;;;;;46.50;23.87;;;-0.70;78.70;;;;;;6248017;28;20756;-78
2023/03/03 07:49:35;;;;;;;44.10;24.23;;;-0.70;78.40;;;;;;6215441;28;20287;-77
2023/03/03 07:52:41;;;;;;;47.70;26.13;;;-0.60;78.50;;;;;;6215439;28;20614;-79
2023/03/03 07:55:44;;;;;;;46.43;25.77;;;-0.60;78.00;;;;;;6203069;28;20235;-78
2023/03/03 07:58:47;;;;;;;49.80;27.30;;;-0.40;77.70;;;;;;6219325;28;20249;-79
2023/03/03 08:01:54;;;;;;;49.77;24.23;;;-0.50;77.50;;;;;;6205041;28;20617;-81
2023/03/03 08:04:58;;;;;;;44.90;23.80;;;-0.50;77.30;;;;;;6248057;28;20619;-80
2023/03/03 08:08:29;;;;;;;47.23;24.57;;;-0.40;77.30;;;;;;6219561;28;20253;-80
2023/03/03 08:11:32;;;;;;;48.67;23.63;;;-0.40;77.40;;;;;;6207379;28;20235;-82
2023/03/03 08:14:37;;;;;;;50.63;24.53;;;-0.40;77.50;;;;;;6203612;28;20238;-81
2023/03/03 08:17:44;;;;;;;45.47;23.57;;;-0.40;77.40;;;;;;6230497;28;20239;-80
2023/03/03 08:20:50;;;;;;;45.80;25.63;;;-0.50;77.40;;;;;;6268653;28;20235;-81
2023/03/03 08:23:54;;;;;;;47.03;25.50;;;-0.50;77.60;;;;;;6255517;28;20247;-78
2023/03/03 08:26:57;;;;;;;54.40;28.37;;;-0.40;77.80;;;;;;6262579;28;20303;-81
2023/03/03 08:30:00;;;;;;;54.10;27.40;;;-0.30;77.70;;;;;;6258732;28;20265;-83
2023/03/03 08:33:04;;;;;;;55.93;26.90;;;-0.30;78.00;;;;;;6236369;28;20325;-81
2023/03/03 08:36:09;;;;;;;52.63;26.17;;;-0.20;77.70;;;;;;6235207;28;20235;-83
2023/03/03 08:39:13;;;;;;;47.87;24.70;;;-0.20;77.50;;;;;;6216650;28;20881;-80
2023/03/03 08:42:18;;;;;;;46.83;23.47;;;-0.20;77.30;;;;;;6215936;28;20239;-81
2023/03/03 08:45:21;;;;;;;35.87;20.30;;;-0.20;77.50;;;;;;6200586;28;20379;-83
2023/03/03 08:48:26;;;;;;;36.17;20.00;;;-0.20;77.20;;;;;;6201514;28;20898;-81
2023/03/03 08:51:33;;;;;;;34.87;20.07;;;-0.30;77.80;;;;;;6202487;28;20243;-82
2023/03/03 08:54:36;;;;;;;37.57;22.67;;;-0.10;77.70;;;;;;6195803;28;20239;-83
2023/03/03 08:57:39;;;;;;;41.83;22.43;;;-0.10;77.20;;;;;;6238493;28;20712;-81
2023/03/03 09:00:43;;;;;;;39.63;22.97;;;-0.10;76.90;;;;;;6239126;28;20608;-81
2023/03/03 09:03:48;;;;;;;39.37;21.87;;;-0.10;77.10;;;;;;6230433;28;20325;-81
2023/03/03 09:06:53;;;;;;;41.30;24.43;;;0.00;76.70;;;;;;6198169;28;20235;-80
2023/03/03 09:09:56;;;;;;;38.63;22.67;;;0.00;76.50;;;;;;6220108;28;20248;-78
2023/03/03 09:13:04;;;;;;;41.77;22.73;;;0.00;76.20;;;;;;6208845;28;20644;-80
2023/03/03 09:16:14;;;;;;;44.17;23.77;;;0.00;76.40;;;;;;6196064;28;20231;-79
2023/03/03 09:19:24;;;;;;;42.70;24.60;;;0.20;76.40;;;;;;6194642;28;20235;-79
2023/03/03 09:22:29;;;;;;;33.93;22.90;;;0.30;75.90;;;;;;6221845;28;20239;-81
2023/03/03 09:25:34;;;;;;;39.60;25.20;;;0.40;75.50;;;;;;6205026;28;20936;-82
2023/03/03 09:28:38;;;;;;;38.13;22.70;;;0.50;75.10;;;;;;6204783;28;20290;-78
2023/03/03 09:31:46;;;;;;;36.13;22.67;;;0.70;75.20;;;;;;6202735;28;20306;-80
2023/03/03 09:34:49;;;;;;;40.23;23.50;;;0.80;73.70;;;;;;6201575;28;20878;-82
2023/03/03 09:37:53;;;;;;;34.40;21.50;;;0.70;74.00;;;;;;6230119;28;20239;-80
2023/03/03 09:41:45;;;;;;;34.90;21.10;;;0.60;73.90;;;;;;6235565;28;20250;-82
2023/03/03 09:45:27;;;;;;;30.57;19.30;;;0.80;73.50;;;;;;6235207;28;20235;-81
2023/03/03 09:48:51;;;;;;;35.90;23.73;;;0.80;73.60;;;;;;6197840;28;20474;-80
2023/03/03 09:52:14;;;;;;;38.27;23.93;;;0.80;73.40;;;;;;6210543;28;20456;-79
2023/03/03 09:55:32;;;;;;;40.60;26.07;;;0.90;73.20;;;;;;6219519;28;20727;-83
2023/03/03 09:58:53;;;;;;;40.97;26.73;;;0.80;73.80;;;;;;6236683;28;20318;-83
2023/03/03 10:02:08;;;;;;;46.50;26.80;;;1.00;73.40;;;;;;6219964;28;20252;-80
2023/03/03 10:05:21;;;;;;;41.43;25.47;;;1.00;73.70;;;;;;6221373;28;20248;-81
2023/03/03 10:08:47;;;;;;;40.87;25.47;;;1.20;73.50;;;;;;6240522;28;20235;-80
2023/03/03 10:11:58;;;;;;;38.97;25.33;;;1.20;72.90;;;;;;6209494;28;20246;-81
2023/03/03 10:15:18;;;;;;;35.27;22.67;;;1.00;73.50;;;;;;6228853;28;20234;-81
2023/03/03 10:18:32;;;;;;;35.83;23.97;;;1.30;72.90;;;;;;6219070;28;20227;-82
2023/03/03 10:21:39;;;;;;;39.67;24.37;;;1.20;72.80;;;;;;6245628;28;20236;-83
2023/03/03 10:24:56;;;;;;;36.10;23.47;;;1.20;72.90;;;;;;6220057;28;20722;-80
2023/03/03 10:28:43;;;;;;;37.00;25.03;;;1.50;72.90;;;;;;6204987;28;20250;-81
2023/03/03 10:31:58;;;;;;;35.70;25.33;;;1.50;72.60;;;;;;6255506;28;20234;-79
2023/03/03 10:35:23;;;;;;;38.33;25.97;;;1.40;72.20;;;;;;6243978;28;20391;-79
2023/03/03 10:38:44;;;;;;;36.27;25.13;;;1.20;72.90;;;;;;6222271;28;20232;-79
2023/03/03 10:42:03;;;;;;;35.97;24.77;;;1.30;73.20;;;;;;6255287;28;20245;-78
2023/03/03 10:45:29;;;;;;;35.50;24.77;;;1.50;72.50;;;;;;6249550;28;20228;-80
2023/03/03 10:48:57;;;;;;;29.43;21.20;;;1.60;72.10;;;;;;6248069;28;20258;-80
2023/03/03 10:52:19;;;;;;;23.37;17.50;;;1.80;71.60;;;;;;6222447;28;20242;-79
2023/03/03 10:55:38;;;;;;;27.23;19.50;;;1.90;71.20;;;;;;6247426;28;20234;-82
2023/03/03 10:58:59;;;;;;;24.73;17.97;;;1.70;72.10;;;;;;6231656;28;20259;-79
2023/03/03 11:02:15;;;;;;;32.47;23.23;;;1.80;71.80;;;;;;6244649;28;20479;-81
2023/03/03 11:05:29;;;;;;;36.17;24.53;;;1.80;72.00;;;;;;6205084;28;20239;-81
2023/03/03 11:08:38;;;;;;;39.33;25.77;;;1.80;71.90;;;;;;6230930;28;20318;-81
2023/03/03 11:11:46;;;;;;;35.17;23.23;;;1.80;71.90;;;;;;6221394;28;20254;-82
2023/03/03 11:14:59;;;;;;;34.07;20.70;;;1.90;71.80;;;;;;6220044;28;20235;-80
2023/03/03 11:18:15;;;;;;;27.47;20.83;;;2.00;71.50;;;;;;6227748;28;20239;-81
2023/03/03 11:21:24;;;;;;;31.10;21.70;;;1.90;71.70;;;;;;6233558;28;20255;-82
2023/03/03 11:24:45;;;;;;;32.23;22.40;;;1.90;71.80;;;;;;6214202;28;20247;-80
2023/03/03 11:28:12;;;;;;;32.03;21.30;;;1.80;72.30;;;;;;6244974;28;20230;-81
2023/03/03 11:31:26;;;;;;;34.73;21.67;;;1.70;72.70;;;;;;6243189;28;20249;-81
2023/03/03 11:34:51;;;;;;;35.30;21.63;;;1.80;72.90;;;;;;6203923;28;20224;-78
2023/03/03 11:38:06;;;;;;;32.80;21.90;;;2.00;72.50;;;;;;6204577;28;20319;-79
2023/03/03 11:41:23;;;;;;;33.73;22.77;;;2.00;72.50;;;;;;6211412;28;20245;-82
2023/03/03 11:44:31;;;;;;;42.23;26.03;;;2.20;72.00;;;;;;6205298;28;20232;-79
2023/03/03 11:47:40;;;;;;;43.93;27.93;;;2.40;71.70;;;;;;6216000;28;20237;-79
2023/03/03 11:50:53;;;;;;;47.73;30.27;;;2.40;71.50;;;;;;6229607;28;20250;-83
2023/03/03 11:54:01;;;;;;;53.47;30.70;;;2.50;71.50;;;;;;6222000;28;20242;-79
2023/03/03 11:57:19;;;;;;;45.10;30.47;;;2.40;71.40;;;;;;6238547;28;20315;-80
2023/03/03 12:00:30;;;;;;;46.50;29.20;;;2.40;71.70;;;;;;6231188;28;20543;-80
2023/03/03 12:03:37;;;;;;;45.60;29.20;;;2.50;71.80;;;;;;6206615;28;20305;-80
2023/03/03 12:07:08;;;;;;;40.73;27.03;;;2.70;71.40;;;;;;6222610;28;20265;-80
2023/03/03 12:10:27;;;;;;;41.60;26.67;;;2.90;71.10;;;;;;6214620;28;20231;-82
2023/03/03 12:13:41;;;;;;;53.10;33.00;;;3.00;70.40;;;;;;6229196;28;20779;-81
2023/03/03 12:16:54;;;;;;;49.17;31.97;;;2.90;70.20;;;;;;6234625;28;20238;-81
2023/03/03 12:20:06;;;;;;;51.57;31.90;;;2.80;70.90;;;;;;6212812;28;20231;-80
2023/03/03 12:23:31;;;;;;;47.23;29.73;;;2.80;70.70;;;;;;6223843;28;20239;-80
2023/03/03 12:26:43;;;;;;;40.93;26.43;;;2.70;70.70;;;;;;6215508;28;20227;-80
2023/03/03 12:30:00;;;;;;;30.87;21.67;;;2.80;70.60;;;;;;6212487;28;20236;-81
2023/03/03 12:33:20;;;;;;;28.87;19.93;;;2.80;70.80;;;;;;6240906;28;20238;-79
2023/03/03 12:36:46;;;;;;;26.63;18.47;;;2.90;70.70;;;;;;6247135;28;20617;-79
2023/03/03 12:40:00;;;;;;;29.30;20.07;;;2.70;71.20;;;;;;6240625;28;20238;-78
2023/03/03 12:43:18;;;;;;;30.80;19.50;;;2.80;71.20;;;;;;6235382;28;20244;-80
2023/03/03 12:46:25;;;;;;;38.30;24.57;;;2.90;71.10;;;;;;6207797;28;20325;-80
2023/03/03 12:49:39;;;;;;;29.23;20.07;;;3.00;70.90;;;;;;6231504;28;22202;-79
2023/03/03 12:52:54;;;;;;;25.70;18.50;;;2.90;71.00;;;;;;6243452;28;20238;-80
2023/03/03 12:56:04;;;;;;;35.37;20.63;;;3.00;70.50;;;;;;6241853;28;20230;-82
2023/03/03 12:59:15;;;;;;;37.30;23.17;;;3.00;70.70;;;;;;6218384;28;20240;-81
2023/03/03 13:02:47;;;;;;;34.87;22.97;;;3.10;70.60;;;;;;6218001;28;20726;-80
2023/03/03 13:06:00;;;;;;;28.17;20.60;;;3.30;70.30;;;;;;6236448;28;20282;-77
2023/03/03 13:09:17;;;;;;;31.47;22.03;;;3.30;70.50;;;;;;6241652;28;20260;-77
2023/03/03 13:12:39;;;;;;;40.03;26.67;;;3.40;70.50;;;;;;6246157;28;20600;-81
2023/03/03 13:15:45;;;;;;;34.97;23.10;;;3.50;70.20;;;;;;6237311;28;20639;-81
2023/03/03 13:19:02;;;;;;;34.40;22.97;;;3.60;70.10;;;;;;6230207;28;20231;-80
2023/03/03 13:22:12;;;;;;;40.97;26.03;;;3.80;69.50;;;;;;6241436;28;20246;-82
2023/03/03 13:25:38;;;;;;;43.40;28.53;;;3.90;68.80;;;;;;6237359;28;20242;-81
2023/03/03 13:28:57;;;;;;;40.47;26.13;;;3.90;68.20;;;;;;6235031;28;20325;-79
2023/03/03 13:32:08;;;;;;;42.40;26.57;;;3.70;68.70;;;;;;6249202;28;20767;-83
2023/03/03 13:35:23;;;;;;;42.00;26.67;;;3.70;69.00;;;;;;6248586;28;20319;-81
2023/03/03 13:38:30;;;;;;;48.23;29.17;;;3.60;69.40;;;;;;6231399;28;20238;-82
2023/03/03 13:41:42;;;;;;;38.33;27.87;;;3.50;69.10;;;;;;6215222;28;20230;-79
2023/03/03 13:44:50;;;;;;;46.30;31.93;;;3.40;69.50;;;;;;6241213;28;20245;-80
2023/03/03 13:48:01;;;;;;;44.73;29.93;;;3.30;70.00;;;;;;6248318;28;20238;-81
2023/03/03 13:51:14;;;;;;;36.53;24.27;;;3.20;70.20;;;;;;6194405;28;20240;-80
2023/03/03 13:54:46;;;;;;;32.70;21.90;;;3.30;70.60;;;;;;6210900;28;20244;-82
2023/03/03 13:58:00;;;;;;;39.47;27.03;;;3.40;70.20;;;;;;6220203;28;20230;-80
2023/03/03 14:01:14;;;;;;;33.43;23.03;;;3.40;70.50;;;;;;6241959;28;20238;-81
2023/03/03 14:04:31;;;;;;;29.47;21.23;;;3.50;70.20;;;;;;6234188;28;20920;-80
2023/03/03 14:07:39;;;;;;;36.03;23.33;;;3.50;70.30;;;;;;6238556;28;20881;-81
2023/03/03 14:10:47;;;;;;;45.40;28.93;;;3.50;70.40;;;;;;6234397;28;20249;-81
2023/03/03 14:14:00;;;;;;;43.07;28.10;;;3.60;69.70;;;;;;6240830;28;20235;-78
2023/03/03 14:17:13;;;;;;;40.70;26.47;;;3.60;69.30;;;;;;6241935;28;20242;-79
2023/03/03 14:20:24;;;;;;;34.17;23.37;;;3.50;69.60;;;;;;6233603;28;20643;-80
2023/03/03 14:23:33;;;;;;;32.83;23.30;;;3.40;69.80;;;;;;6230551;28;20241;-78
2023/03/03 14:26:48;;;;;;;31.33;22.37;;;3.40;69.90;;;;;;6238276;28;20235;-79
2023/03/03 14:29:51;;;;;;;30.23;21.17;;;3.30;70.00;;;;;;6223901;28;20322;-78
2023/03/03 14:33:17;;;;;;;28.93;19.90;;;3.30;70.50;;;;;;6212555;28;20240;-79
2023/03/03 14:36:27;;;;;;;27.30;20.20;;;3.40;69.90;;;;;;6223657;28;20290;-75
2023/03/03 14:39:35;;;;;;;32.10;22.50;;;3.40;70.10;;;;;;6251758;28;20446;-79
2023/03/03 14:42:47;;;;;;;33.00;23.17;;;3.40;70.10;;;;;;6264803;28;20225;-79
2023/03/03 14:45:51;;;;;;;34.23;24.43;;;3.50;70.30;;;;;;6269328;28;20242;-78
2023/03/03 14:48:58;;;;;;;30.53;20.83;;;3.60;70.40;;;;;;6267013;28;20218;-78
2023/03/03 14:52:19;;;;;;;33.53;24.33;;;3.80;69.70;;;;;;6268022;28;20470;-78
2023/03/03 14:55:36;;;;;;;36.77;26.33;;;3.70;69.30;;;;;;6247559;28;20246;-79
2023/03/03 14:58:41;;;;;;;39.90;25.17;;;3.60;69.90;;;;;;6216387;28;20250;-79
2023/03/03 15:01:45;;;;;;;37.30;24.27;;;3.50;70.10;;;;;;6211817;28;20370;-82
2023/03/03 15:04:49;;;;;;;34.37;23.97;;;3.50;70.00;;;;;;6210939;28;20235;-83
2023/03/03 15:07:55;;;;;;;33.70;23.10;;;3.50;70.40;;;;;;6240393;28;20230;-79
2023/03/03 15:11:17;;;;;;;35.20;24.90;;;3.60;70.20;;;;;;6244300;28;20630;-79
2023/03/03 15:14:28;;;;;;;27.27;20.73;;;3.60;70.10;;;;;;6249538;28;20444;-80
2023/03/03 15:17:36;;;;;;;24.73;18.77;;;3.50;70.60;;;;;;6234324;28;20234;-82
2023/03/03 15:20:47;;;;;;;24.47;16.90;;;3.60;70.40;;;;;;6243508;28;20245;-79
2023/03/03 15:23:57;;;;;;;22.20;15.83;;;3.60;70.20;;;;;;6238469;28;20259;-80
2023/03/03 15:27:04;;;;;;;26.37;15.93;;;3.70;70.20;;;;;;6225387;28;20324;-78
2023/03/03 15:30:15;;;;;;;21.27;15.87;;;3.70;70.00;;;;;;6283195;28;20237;-77
2023/03/03 15:33:29;;;;;;;22.53;16.70;;;3.70;70.00;;;;;;6281722;28;20230;-77
2023/03/03 15:36:44;;;;;;;21.23;15.90;;;3.70;70.10;;;;;;6271013;28;20254;-75
2023/03/03 15:39:58;;;;;;;19.47;15.20;;;3.50;70.40;;;;;;6266479;28;20242;-74
2023/03/03 15:43:11;;;;;;;21.47;15.63;;;3.50;70.60;;;;;;6262070;28;20227;-75
2023/03/03 15:46:28;;;;;;;22.63;16.23;;;3.60;70.60;;;;;;6259467;28;20257;-79
2023/03/03 15:50:07;;;;;;;20.60;16.30;;;3.50;70.40;;;;;;6232134;28;20313;-82
2023/03/03 15:53:26;;;;;;;20.07;13.80;;;3.50;70.50;;;;;;6222270;28;20313;-80
2023/03/03 15:56:36;;;;;;;19.67;15.47;;;3.60;70.20;;;;;;6228038;28;20234;-82
2023/03/03 16:00:00;;;;;;;18.10;15.20;;;3.50;70.40;;;;;;6227625;28;20711;-81
2023/03/03 16:03:12;;;;;;;23.67;16.00;;;3.50;70.50;;;;;;6248913;28;20238;-79
2023/03/03 16:06:21;;;;;;;19.57;15.27;;;3.50;70.30;;;;;;6244871;28;20242;-80